createdAt,value
2022-12-09T00:00:41.738Z,40.20
2022-12-09T00:03:23.899Z,40.60
2022-12-09T00:05:58.842Z,42.60
2022-12-09T00:08:31.248Z,39.60
2022-12-09T00:11:14.037Z,40.80
2022-12-09T00:13:51.901Z,37.50
2022-12-09T00:19:02.976Z,38.60
2022-12-09T00:21:38.069Z,35.60
2022-12-09T00:24:14.877Z,25.20
2022-12-09T00:26:53.949Z,29.70
2022-12-09T00:29:28.245Z,32.60
2022-12-09T00:32:04.172Z,38.80
2022-12-09T00:34:37.196Z,35.30
2022-12-09T00:37:12.392Z,37.10
2022-12-09T00:39:47.869Z,37.80
2022-12-09T00:42:24.859Z,38.00
2022-12-09T00:44:57.426Z,36.00
2022-12-09T00:47:32.953Z,37.60
2022-12-09T00:50:07.482Z,37.70
2022-12-09T00:52:43.013Z,36.10
2022-12-09T00:55:16.683Z,38.30
2022-12-09T00:58:02.513Z,38.40
2022-12-09T01:00:35.950Z,44.30
2022-12-09T01:03:13.141Z,37.80
2022-12-09T01:05:49.775Z,44.40
2022-12-09T01:08:24.315Z,40.10
2022-12-09T01:11:07.989Z,40.60
2022-12-09T01:13:49.975Z,39.00
2022-12-09T01:16:25.224Z,42.10
2022-12-09T01:19:04.163Z,40.20
2022-12-09T01:21:39.342Z,40.60
2022-12-09T01:24:18.215Z,38.10
2022-12-09T01:26:54.693Z,32.10
2022-12-09T01:29:27.092Z,43.10
2022-12-09T01:31:59.737Z,36.90
2022-12-09T01:34:37.340Z,38.70
2022-12-09T01:37:14.300Z,40.70
2022-12-09T01:39:52.611Z,41.40
2022-12-09T01:42:28.949Z,43.00
2022-12-09T01:45:44.794Z,38.70
2022-12-09T01:48:19.893Z,34.90
2022-12-09T01:50:58.029Z,41.40
2022-12-09T01:53:34.032Z,34.20
2022-12-09T01:56:18.667Z,33.70
2022-12-09T01:58:56.084Z,36.60
2022-12-09T02:01:29.060Z,41.10
2022-12-09T02:04:10.846Z,41.40
2022-12-09T02:06:47.404Z,36.30
2022-12-09T02:09:31.238Z,43.90
2022-12-09T02:12:16.184Z,40.10
2022-12-09T02:14:57.274Z,38.00
2022-12-09T02:17:39.165Z,38.40
2022-12-09T02:20:21.639Z,41.50
2022-12-09T02:23:03.574Z,37.90
2022-12-09T02:25:42.862Z,34.90
2022-12-09T02:28:55.729Z,38.00
2022-12-09T02:31:47.163Z,40.30
2022-12-09T02:34:25.645Z,39.60
2022-12-09T02:37:14.519Z,35.30
2022-12-09T02:39:55.679Z,39.80
2022-12-09T02:42:34.990Z,51.60
2022-12-09T02:45:22.232Z,43.90
2022-12-09T02:48:02.822Z,39.80
2022-12-09T02:50:40.070Z,40.50
2022-12-09T02:53:17.870Z,38.10
2022-12-09T02:55:56.223Z,34.80
2022-12-09T02:58:30.583Z,41.10
2022-12-09T03:01:03.615Z,46.70
2022-12-09T03:03:46.211Z,39.10
2022-12-09T03:06:21.265Z,33.60
2022-12-09T03:09:01.099Z,30.00
2022-12-09T03:11:37.108Z,37.70
2022-12-09T03:14:15.337Z,45.20
2022-12-09T03:16:54.559Z,41.40
2022-12-09T03:19:35.025Z,42.00
2022-12-09T03:22:13.622Z,41.00
2022-12-09T03:24:52.532Z,39.30
2022-12-09T03:27:32.323Z,36.40
2022-12-09T03:30:10.157Z,40.30
2022-12-09T03:32:46.243Z,39.00
2022-12-09T03:35:22.618Z,44.30
2022-12-09T03:37:57.644Z,41.10
2022-12-09T03:40:36.441Z,39.00
2022-12-09T03:43:14.114Z,43.70
2022-12-09T03:45:46.625Z,47.30
2022-12-09T03:48:19.099Z,42.90
2022-12-09T03:50:56.560Z,45.90
2022-12-09T03:53:47.385Z,43.40
2022-12-09T03:56:23.228Z,37.00
2022-12-09T03:58:59.259Z,44.60
2022-12-09T04:01:35.467Z,45.10
2022-12-09T04:04:09.059Z,36.80
2022-12-09T04:06:47.632Z,28.80
2022-12-09T04:09:23.235Z,36.30
2022-12-09T04:11:58.083Z,37.40
2022-12-09T04:14:31.196Z,31.90
2022-12-09T04:17:06.496Z,41.30
2022-12-09T04:19:46.835Z,40.30
2022-12-09T04:22:19.750Z,39.40
2022-12-09T04:25:00.818Z,43.20
2022-12-09T04:27:35.084Z,41.80
2022-12-09T04:30:18.664Z,42.30
2022-12-09T04:32:53.728Z,25.10
2022-12-09T04:35:29.345Z,35.50
2022-12-09T04:38:01.969Z,34.70
2022-12-09T04:40:35.463Z,38.20
2022-12-09T04:43:07.820Z,34.30
2022-12-09T04:45:40.718Z,38.70
2022-12-09T04:48:19.803Z,33.50
2022-12-09T04:50:52.520Z,38.50
2022-12-09T04:53:26.011Z,37.00
2022-12-09T04:56:06.237Z,38.30
2022-12-09T04:58:48.541Z,41.90
2022-12-09T05:01:30.691Z,38.40
2022-12-09T05:04:07.613Z,42.70
2022-12-09T05:06:43.680Z,37.00
2022-12-09T05:09:20.976Z,36.60
2022-12-09T05:11:53.668Z,34.20
2022-12-09T05:14:28.662Z,40.40
2022-12-09T05:17:01.625Z,37.20
2022-12-09T05:19:34.487Z,37.70
2022-12-09T05:22:07.996Z,35.70
2022-12-09T05:24:44.627Z,39.70
2022-12-09T05:27:17.942Z,39.20
2022-12-09T05:29:55.462Z,47.20
2022-12-09T05:32:29.787Z,42.60
2022-12-09T05:35:02.150Z,45.10
2022-12-09T05:37:35.077Z,40.30
2022-12-09T05:40:10.187Z,42.20
2022-12-09T05:42:43.510Z,38.70
2022-12-09T05:45:16.275Z,43.00
2022-12-09T05:47:50.618Z,36.10
2022-12-09T05:50:23.293Z,38.80
2022-12-09T05:53:05.088Z,45.50
2022-12-09T05:55:44.091Z,59.80
2022-12-09T05:58:21.752Z,54.40
2022-12-09T06:00:58.048Z,51.40
2022-12-09T06:03:30.841Z,57.20
2022-12-09T06:06:17.803Z,58.90
2022-12-09T06:09:11.584Z,63.30
2022-12-09T06:11:46.666Z,83.50
2022-12-09T06:14:19.722Z,69.90
2022-12-09T06:16:52.531Z,44.60
2022-12-09T06:19:25.337Z,43.40
2022-12-09T06:21:57.942Z,43.00
2022-12-09T06:24:30.835Z,46.60
2022-12-09T06:27:07.583Z,40.00
2022-12-09T06:29:41.869Z,41.20
2022-12-09T06:32:17.321Z,35.90
2022-12-09T06:34:58.356Z,45.10
2022-12-09T06:37:33.280Z,43.50
2022-12-09T06:40:10.228Z,45.50
2022-12-09T06:42:43.847Z,43.30
2022-12-09T06:45:19.945Z,39.90
2022-12-09T06:47:52.901Z,41.30
2022-12-09T06:50:25.832Z,40.00
2022-12-09T06:52:58.539Z,41.40
2022-12-09T06:55:31.112Z,42.30
2022-12-09T06:58:03.632Z,39.40
2022-12-09T07:00:47.540Z,35.10
2022-12-09T07:03:24.070Z,32.60
2022-12-09T07:05:57.688Z,43.40
2022-12-09T07:08:32.345Z,44.00
2022-12-09T07:11:05.329Z,42.80
2022-12-09T07:13:43.004Z,46.30
2022-12-09T07:16:18.617Z,49.50
2022-12-09T07:18:51.930Z,55.80
2022-12-09T07:21:27.007Z,49.30
2022-12-09T07:24:03.139Z,47.00
2022-12-09T07:26:36.578Z,49.40
2022-12-09T07:29:12.190Z,59.30
2022-12-09T07:31:52.170Z,63.50
2022-12-09T07:34:25.988Z,61.70
2022-12-09T07:36:58.579Z,51.90
2022-12-09T07:39:31.076Z,62.70
2022-12-09T07:42:03.230Z,67.10
2022-12-09T07:44:35.770Z,76.50
2022-12-09T07:47:11.062Z,61.10
2022-12-09T07:49:49.860Z,75.20
2022-12-09T07:52:22.353Z,75.50
2022-12-09T07:54:55.830Z,68.80
2022-12-09T07:57:28.512Z,68.50
2022-12-09T08:00:06.265Z,58.10
2022-12-09T08:02:46.066Z,49.20
2022-12-09T08:05:22.044Z,66.20
2022-12-09T08:07:55.555Z,58.40
2022-12-09T08:10:28.334Z,61.30
2022-12-09T08:13:01.860Z,66.80
2022-12-09T08:15:38.255Z,57.70
2022-12-09T08:18:14.279Z,64.00
2022-12-09T08:20:47.030Z,61.30
2022-12-09T08:23:20.753Z,55.50
2022-12-09T08:25:57.246Z,58.40
2022-12-09T08:28:32.311Z,53.80
2022-12-09T08:31:09.701Z,52.30
2022-12-09T08:33:44.156Z,51.80
2022-12-09T08:36:21.056Z,59.70
2022-12-09T08:39:06.260Z,53.70
2022-12-09T08:41:41.849Z,59.30
2022-12-09T08:44:24.143Z,51.30
2022-12-09T08:46:56.884Z,52.00
2022-12-09T08:49:33.885Z,56.20
2022-12-09T08:52:06.732Z,62.60
2022-12-09T08:54:39.575Z,61.50
2022-12-09T08:57:12.439Z,64.30
2022-12-09T08:59:46.023Z,51.10
2022-12-09T09:02:21.017Z,58.80
2022-12-09T09:04:53.841Z,67.50
2022-12-09T09:07:27.306Z,60.30
2022-12-09T09:10:03.542Z,58.60
2022-12-09T09:12:42.418Z,65.70
2022-12-09T09:15:17.604Z,57.30
2022-12-09T09:17:52.283Z,69.90
2022-12-09T09:20:29.580Z,66.80
2022-12-09T09:23:04.141Z,61.30
2022-12-09T09:25:47.739Z,56.50
2022-12-09T09:28:24.818Z,60.90
2022-12-09T09:31:04.317Z,66.70
2022-12-09T09:33:47.986Z,65.40
2022-12-09T09:36:23.898Z,61.60
2022-12-09T09:39:08.408Z,54.70
2022-12-09T09:41:56.591Z,58.90
2022-12-09T09:44:33.268Z,59.20
2022-12-09T09:50:27.355Z,74.80
2022-12-09T09:53:16.835Z,68.20
2022-12-09T09:55:54.176Z,66.80
2022-12-09T09:58:44.243Z,70.90
2022-12-09T10:01:21.089Z,63.30
2022-12-09T10:04:02.869Z,60.20
2022-12-09T10:06:47.093Z,58.60
2022-12-09T10:09:26.008Z,62.10
2022-12-09T10:12:03.179Z,52.40
2022-12-09T10:14:45.854Z,66.00
2022-12-09T10:17:35.062Z,55.70
2022-12-09T10:20:23.418Z,54.60
2022-12-09T10:23:01.028Z,56.40
2022-12-09T10:25:35.909Z,54.40
2022-12-09T10:28:22.426Z,56.40
2022-12-09T10:30:58.194Z,51.10
2022-12-09T10:33:34.370Z,48.00
2022-12-09T10:36:24.257Z,55.00
2022-12-09T10:39:05.300Z,53.50
2022-12-09T10:42:10.691Z,51.10
2022-12-09T10:44:49.105Z,53.50
2022-12-09T10:50:00.223Z,54.20
2022-12-09T10:52:44.467Z,53.60
2022-12-09T10:55:38.121Z,60.90
2022-12-09T10:58:21.097Z,55.90
2022-12-09T11:01:10.324Z,46.20
2022-12-09T11:03:49.861Z,54.90
2022-12-09T11:06:29.399Z,58.30
2022-12-09T11:09:05.235Z,60.90
2022-12-09T11:11:51.945Z,59.40
2022-12-09T11:14:30.515Z,50.00
2022-12-09T11:17:17.149Z,52.80
2022-12-09T11:19:56.016Z,59.40
2022-12-09T11:22:39.361Z,59.80
2022-12-09T11:25:27.222Z,59.50
2022-12-09T11:28:02.133Z,63.70
2022-12-09T11:30:36.484Z,68.80
2022-12-09T11:33:27.238Z,60.60
2022-12-09T11:38:47.831Z,61.40
2022-12-09T11:41:42.479Z,56.00
2022-12-09T11:44:31.110Z,51.70
2022-12-09T11:47:07.955Z,44.30
2022-12-09T11:49:50.669Z,56.70
2022-12-09T11:52:30.624Z,61.60
2022-12-09T11:55:22.625Z,57.30
2022-12-09T11:58:03.719Z,59.80
2022-12-09T12:00:46.663Z,60.10
2022-12-09T12:03:23.184Z,59.60
2022-12-09T12:05:58.893Z,58.10
2022-12-09T12:08:36.417Z,49.40
2022-12-09T12:11:15.522Z,61.50
2022-12-09T12:13:49.621Z,59.20
2022-12-09T12:16:28.606Z,55.30
2022-12-09T12:19:19.502Z,54.10
2022-12-09T12:22:21.228Z,42.70
2022-12-09T12:25:17.163Z,51.80
2022-12-09T12:28:09.660Z,69.90
2022-12-09T12:30:51.468Z,61.80
2022-12-09T12:36:52.764Z,61.40
2022-12-09T12:39:40.147Z,55.10
2022-12-09T12:42:25.980Z,55.30
2022-12-09T12:45:29.374Z,56.80
2022-12-09T12:48:08.943Z,60.00
2022-12-09T12:50:55.281Z,59.30
2022-12-09T12:53:43.760Z,54.20
2022-12-09T12:56:29.145Z,56.60
2022-12-09T12:59:11.696Z,49.40
2022-12-09T13:01:58.888Z,61.90
2022-12-09T13:04:40.521Z,65.20
2022-12-09T13:07:19.191Z,70.80
2022-12-09T13:09:59.344Z,69.70
2022-12-09T13:12:57.663Z,66.80
2022-12-09T13:15:35.022Z,59.10
2022-12-09T13:18:18.492Z,61.20
2022-12-09T13:20:57.786Z,66.30
2022-12-09T13:23:56.256Z,70.40
2022-12-09T13:26:50.926Z,62.10
2022-12-09T13:29:45.085Z,56.80
2022-12-09T13:32:46.882Z,56.60
2022-12-09T13:35:24.533Z,58.50
2022-12-09T13:38:05.340Z,60.50
2022-12-09T13:40:39.222Z,57.90
2022-12-09T13:43:26.587Z,60.00
2022-12-09T13:46:01.207Z,58.60
2022-12-09T13:48:52.571Z,62.20
2022-12-09T13:51:27.737Z,63.50
2022-12-09T13:54:09.941Z,66.90
2022-12-09T13:57:10.415Z,57.90
2022-12-09T13:59:46.361Z,60.60
2022-12-09T14:02:28.631Z,57.60
2022-12-09T14:05:12.603Z,57.10
2022-12-09T14:07:51.432Z,59.10
2022-12-09T14:10:39.365Z,55.50
2022-12-09T14:13:26.617Z,64.20
2022-12-09T14:16:35.520Z,65.70
2022-12-09T14:19:54.870Z,79.00
2022-12-09T14:23:08.136Z,130.20
2022-12-09T14:26:09.490Z,105.70
2022-12-09T14:29:13.933Z,91.20
2022-12-09T14:32:07.161Z,78.30
2022-12-09T14:34:46.977Z,78.50
2022-12-09T14:37:41.740Z,79.90
2022-12-09T14:40:50.207Z,109.20
2022-12-09T14:43:51.082Z,90.50
2022-12-09T14:46:36.117Z,80.10
2022-12-09T14:49:22.990Z,93.40
2022-12-09T14:51:59.043Z,91.60
2022-12-09T14:54:39.549Z,70.30
2022-12-09T14:57:26.050Z,76.00
2022-12-09T15:00:03.053Z,77.30
2022-12-09T15:02:35.773Z,67.00
2022-12-09T15:05:21.761Z,71.10
2022-12-09T15:07:55.337Z,67.50
2022-12-09T15:10:37.403Z,51.10
2022-12-09T15:13:18.889Z,66.70
2022-12-09T15:15:53.543Z,61.50
2022-12-09T15:18:31.518Z,73.20
2022-12-09T15:21:04.414Z,83.70
2022-12-09T15:23:44.675Z,82.00
2022-12-09T15:26:25.131Z,76.20
2022-12-09T15:28:59.665Z,80.80
2022-12-09T15:31:34.405Z,82.70
2022-12-09T15:34:26.322Z,77.30
2022-12-09T15:37:02.567Z,75.50
2022-12-09T15:39:41.520Z,74.50
2022-12-09T15:42:27.709Z,88.20
2022-12-09T15:45:08.135Z,80.70
2022-12-09T15:47:45.603Z,83.10
2022-12-09T15:50:24.454Z,87.90
2022-12-09T15:53:02.885Z,87.30
2022-12-09T15:55:50.186Z,104.30
2022-12-09T15:58:26.852Z,112.10
2022-12-09T16:01:00.134Z,121.50
2022-12-09T16:03:40.719Z,105.30
2022-12-09T16:06:14.137Z,115.70
2022-12-09T16:08:47.694Z,98.20
2022-12-09T16:11:42.802Z,106.50
2022-12-09T16:14:17.371Z,92.00
2022-12-09T16:17:00.675Z,87.70
2022-12-09T16:19:38.455Z,99.60
2022-12-09T16:22:22.583Z,79.60
2022-12-09T16:25:16.841Z,90.80
2022-12-09T16:27:52.191Z,107.20
2022-12-09T16:30:27.698Z,92.80
2022-12-09T16:33:01.756Z,93.20
2022-12-09T16:35:41.077Z,91.60
2022-12-09T16:38:21.895Z,92.90
2022-12-09T16:41:19.404Z,110.40
2022-12-09T16:43:59.664Z,80.10
2022-12-09T16:47:04.398Z,94.90
2022-12-09T16:49:36.897Z,85.80
2022-12-09T16:52:15.025Z,80.00
2022-12-09T16:54:50.329Z,89.00
2022-12-09T16:57:30.372Z,89.70
2022-12-09T17:00:04.098Z,89.90
2022-12-09T17:02:44.187Z,106.60
2022-12-09T17:05:19.329Z,111.30
2022-12-09T17:07:52.023Z,104.70
2022-12-09T17:10:24.493Z,110.50
2022-12-09T17:12:57.181Z,94.50
2022-12-09T17:15:30.098Z,96.60
2022-12-09T17:18:02.585Z,83.20
2022-12-09T17:20:35.039Z,92.70
2022-12-09T17:23:13.599Z,94.50
2022-12-09T17:25:46.323Z,99.10
2022-12-09T17:28:20.203Z,96.20
2022-12-09T17:30:52.593Z,82.50
2022-12-09T17:33:26.535Z,87.30
2022-12-09T17:35:58.799Z,104.60
2022-12-09T17:38:32.107Z,106.20
2022-12-09T17:41:10.001Z,103.40
2022-12-09T17:43:44.834Z,97.70
2022-12-09T17:46:18.572Z,97.40
2022-12-09T17:48:51.043Z,93.10
2022-12-09T17:51:23.574Z,93.60
2022-12-09T17:54:00.881Z,94.80
2022-12-09T17:56:34.181Z,102.20
2022-12-09T17:59:13.888Z,83.90
2022-12-09T18:01:58.201Z,111.80
2022-12-09T18:04:30.744Z,98.90
2022-12-09T18:07:03.030Z,106.20
2022-12-09T18:09:35.596Z,109.30
2022-12-09T18:12:10.477Z,98.40
2022-12-09T18:14:43.088Z,95.00
2022-12-09T18:17:15.302Z,105.90
2022-12-09T18:19:48.224Z,103.20
2022-12-09T18:22:22.070Z,91.40
2022-12-09T18:24:54.437Z,52.10
2022-12-09T18:27:26.826Z,47.60
2022-12-09T18:29:59.303Z,38.70
2022-12-09T18:32:36.185Z,45.50
2022-12-09T18:35:10.178Z,84.30
2022-12-09T18:37:42.671Z,94.50
2022-12-09T18:40:21.290Z,98.90
2022-12-09T18:42:53.728Z,94.60
2022-12-09T18:45:26.529Z,84.20
2022-12-09T18:47:58.692Z,92.30
2022-12-09T18:50:30.917Z,73.90
2022-12-09T18:53:03.262Z,95.20
2022-12-09T18:55:41.351Z,82.10
2022-12-09T18:58:27.236Z,90.60
2022-12-09T19:01:21.914Z,78.20
2022-12-09T19:03:57.220Z,54.60
2022-12-09T19:06:33.795Z,75.60
2022-12-09T19:09:08.991Z,84.50
2022-12-09T19:11:43.933Z,55.40
2022-12-09T19:14:18.451Z,82.80
2022-12-09T19:16:54.177Z,107.60
2022-12-09T19:19:28.674Z,101.60
2022-12-09T19:22:03.864Z,93.40
2022-12-09T19:24:43.358Z,97.20
2022-12-09T19:27:18.126Z,85.70
2022-12-09T19:29:53.780Z,83.80
2022-12-09T19:32:52.073Z,64.60
2022-12-09T19:35:20.441Z,61.80
2022-12-09T19:38:01.122Z,61.60
2022-12-09T19:40:39.207Z,58.50
2022-12-09T19:43:22.054Z,63.90
2022-12-09T19:45:56.172Z,79.80
2022-12-09T19:48:28.734Z,79.80
2022-12-09T19:51:07.993Z,78.70
2022-12-09T19:53:46.107Z,83.80
2022-12-09T19:56:23.000Z,90.10
2022-12-09T19:58:57.257Z,73.10
2022-12-09T20:01:34.522Z,86.70
2022-12-09T20:04:47.594Z,84.90
2022-12-09T20:07:14.116Z,66.60
2022-12-09T20:09:46.540Z,86.00
2022-12-09T20:12:19.588Z,79.10
2022-12-09T20:14:52.050Z,53.10
2022-12-09T20:17:24.246Z,63.70
2022-12-09T20:19:56.659Z,49.00
2022-12-09T20:22:29.848Z,74.50
2022-12-09T20:25:02.279Z,98.90
2022-12-09T20:27:35.424Z,87.60
2022-12-09T20:30:12.387Z,99.30
2022-12-09T20:32:45.109Z,94.70
2022-12-09T20:35:18.144Z,99.10
2022-12-09T20:37:50.432Z,86.80
2022-12-09T20:40:23.905Z,93.00
2022-12-09T20:42:58.326Z,84.70
2022-12-09T20:45:30.714Z,83.10
2022-12-09T20:48:04.415Z,77.40
2022-12-09T20:50:41.142Z,82.20
2022-12-09T20:53:13.886Z,54.30
2022-12-09T20:55:55.594Z,90.00
2022-12-09T20:58:27.968Z,92.80
2022-12-09T21:01:07.792Z,81.20
2022-12-09T21:03:41.162Z,82.50
2022-12-09T21:06:15.413Z,84.80
2022-12-09T21:08:48.864Z,74.50
2022-12-09T21:11:22.916Z,83.40
2022-12-09T21:14:00.177Z,73.80
2022-12-09T21:16:36.802Z,73.80
2022-12-09T21:19:13.241Z,81.40
2022-12-09T21:21:48.614Z,83.10
2022-12-09T21:24:24.307Z,71.20
2022-12-09T21:26:57.399Z,79.70
2022-12-09T21:29:32.124Z,93.10
2022-12-09T21:32:04.976Z,87.60
2022-12-09T21:34:40.386Z,91.00
2022-12-09T21:37:12.983Z,82.10
2022-12-09T21:39:45.115Z,72.90
2022-12-09T21:42:17.457Z,52.20
2022-12-09T21:44:52.171Z,52.90
2022-12-09T21:47:24.215Z,65.30
2022-12-09T21:49:56.264Z,62.80
2022-12-09T21:52:29.319Z,85.70
2022-12-09T21:55:01.712Z,90.50
2022-12-09T21:57:36.655Z,102.80
2022-12-09T22:00:11.499Z,71.10
2022-12-09T22:02:45.027Z,53.40
2022-12-09T22:05:21.009Z,56.60
2022-12-09T22:07:54.540Z,80.50
2022-12-09T22:10:26.994Z,60.40
2022-12-09T22:12:59.230Z,76.20
2022-12-09T22:15:31.290Z,65.20
2022-12-09T22:18:03.809Z,78.50
2022-12-09T22:23:29.746Z,55.50
2022-12-09T22:26:04.869Z,78.80
2022-12-09T22:28:48.264Z,103.70
2022-12-09T22:31:27.404Z,107.00
2022-12-09T22:34:03.184Z,81.20
2022-12-09T22:36:38.261Z,104.20
2022-12-09T22:39:13.145Z,48.60
2022-12-09T22:41:46.223Z,87.00
2022-12-09T22:44:22.828Z,52.80
2022-12-09T22:46:54.915Z,75.00
2022-12-09T22:49:26.980Z,63.60
2022-12-09T22:52:00.670Z,63.00
2022-12-09T22:54:33.450Z,94.00
2022-12-09T22:57:06.605Z,84.40
2022-12-09T22:59:42.952Z,95.50
2022-12-09T23:02:15.635Z,96.30
2022-12-09T23:04:48.992Z,93.20
2022-12-09T23:07:23.473Z,99.00
2022-12-09T23:09:55.746Z,91.90
2022-12-09T23:12:28.129Z,88.70
2022-12-09T23:15:00.536Z,87.70
2022-12-09T23:17:32.878Z,60.30
2022-12-09T23:20:05.868Z,48.80
2022-12-09T23:22:39.163Z,92.00
2022-12-09T23:25:12.296Z,97.10
2022-12-09T23:27:46.185Z,98.90
2022-12-09T23:30:19.247Z,95.90
2022-12-09T23:32:51.532Z,94.00
2022-12-09T23:35:23.852Z,98.20
2022-12-09T23:37:56.044Z,96.00
2022-12-09T23:40:27.952Z,75.40
2022-12-09T23:43:00.351Z,78.10
2022-12-09T23:45:34.339Z,59.00
2022-12-09T23:48:06.906Z,68.60
2022-12-09T23:50:39.358Z,84.10
2022-12-09T23:53:11.460Z,77.40
2022-12-09T23:55:45.189Z,89.30
2022-12-09T23:58:18.845Z,90.60
